createdAt,value
2022-09-12T00:00:31.976Z,98250.77
2022-09-12T00:01:53.824Z,98254.58
2022-09-12T00:02:56.125Z,98254.30
2022-09-12T00:04:01.258Z,98253.61
2022-09-12T00:05:04.138Z,98251.51
2022-09-12T00:06:21.954Z,98248.70
2022-09-12T00:07:24.811Z,98246.22
2022-09-12T00:08:26.609Z,98250.00
2022-09-12T00:09:28.242Z,98249.56
2022-09-12T00:10:29.950Z,98249.63
2022-09-12T00:11:31.728Z,98249.40
2022-09-12T00:12:33.358Z,98248.86
2022-09-12T00:13:40.818Z,98250.16
2022-09-12T00:14:43.214Z,98248.33
2022-09-12T00:15:45.289Z,98248.22
2022-09-12T00:16:47.313Z,98248.17
2022-09-12T00:17:49.124Z,98242.09
2022-09-12T00:18:52.174Z,98243.77
2022-09-12T00:19:53.883Z,98249.15
2022-09-12T00:20:55.530Z,98247.64
2022-09-12T00:21:57.245Z,98246.58
2022-09-12T00:22:58.861Z,98247.92
2022-09-12T00:24:00.927Z,98244.42
2022-09-12T00:25:03.918Z,98243.07
2022-09-12T00:26:07.798Z,98245.99
2022-09-12T00:27:09.427Z,98242.27
2022-09-12T00:28:12.805Z,98243.67
2022-09-12T00:29:20.262Z,98244.70
2022-09-12T00:30:21.873Z,98245.85
2022-09-12T00:31:26.419Z,98248.86
2022-09-12T00:32:28.199Z,98249.02
2022-09-12T00:33:29.867Z,98246.48
2022-09-12T00:34:31.594Z,98249.36
2022-09-12T00:35:33.411Z,98251.23
2022-09-12T00:36:35.734Z,98249.14
2022-09-12T00:37:37.394Z,98248.93
2022-09-12T00:38:41.877Z,98249.90
2022-09-12T00:39:43.801Z,98248.77
2022-09-12T00:40:46.025Z,98252.23
2022-09-12T00:41:47.722Z,98250.77
2022-09-12T00:42:49.370Z,98252.35
2022-09-12T00:43:56.990Z,98254.13
2022-09-12T00:44:58.797Z,98255.70
2022-09-12T00:46:10.526Z,98254.45
2022-09-12T00:47:23.762Z,98255.38
2022-09-12T00:48:35.240Z,98253.88
2022-09-12T00:49:54.872Z,98252.04
2022-09-12T00:50:56.697Z,98252.42
2022-09-12T00:52:01.301Z,98253.13
2022-09-12T00:53:08.253Z,98255.13
2022-09-12T00:54:17.082Z,98254.21
2022-09-12T00:55:27.759Z,98255.23
2022-09-12T00:56:29.984Z,98254.42
2022-09-12T00:57:37.611Z,98253.20
2022-09-12T00:58:49.685Z,98254.60
2022-09-12T00:59:58.956Z,98255.56
2022-09-12T01:01:01.066Z,98253.52
2022-09-12T01:02:03.933Z,98256.11
2022-09-12T01:03:10.874Z,98256.10
2022-09-12T01:04:13.609Z,98255.20
2022-09-12T01:05:16.134Z,98255.73
2022-09-12T01:06:17.687Z,98250.73
2022-09-12T01:07:21.743Z,98253.84
2022-09-12T01:08:26.106Z,98253.90
2022-09-12T01:09:27.787Z,98253.25
2022-09-12T01:10:30.447Z,98251.58
2022-09-12T01:11:39.647Z,98250.98
2022-09-12T01:12:43.571Z,98248.79
2022-09-12T01:13:46.252Z,98246.05
2022-09-12T01:14:47.878Z,98249.86
2022-09-12T01:15:49.544Z,98248.23
2022-09-12T01:16:51.706Z,98248.99
2022-09-12T01:18:11.367Z,98248.67
2022-09-12T01:19:31.917Z,98251.64
2022-09-12T01:20:47.000Z,98245.77
2022-09-12T01:22:07.060Z,98245.38
2022-09-12T01:23:19.785Z,98248.41
2022-09-12T01:24:43.549Z,98246.67
2022-09-12T01:26:32.538Z,98248.52
2022-09-12T01:27:55.117Z,98247.27
2022-09-12T01:29:25.329Z,98250.06
2022-09-12T01:30:47.040Z,98249.63
2022-09-12T01:32:04.408Z,98251.45
2022-09-12T01:33:27.230Z,98249.20
2022-09-12T01:34:43.997Z,98252.55
2022-09-12T01:36:04.495Z,98250.55
2022-09-12T01:37:35.454Z,98255.73
2022-09-12T01:38:45.522Z,98256.63
2022-09-12T01:40:16.622Z,98252.54
2022-09-12T01:41:42.138Z,98253.45
2022-09-12T01:43:02.216Z,98253.98
2022-09-12T01:44:12.312Z,98257.48
2022-09-12T01:45:36.500Z,98259.13
2022-09-12T01:46:56.709Z,98254.75
2022-09-12T01:48:27.929Z,98254.54
2022-09-12T01:49:33.358Z,98256.36
2022-09-12T01:50:44.291Z,98253.56
2022-09-12T01:52:18.509Z,98252.39
2022-09-12T01:53:38.182Z,98252.02
2022-09-12T01:54:51.398Z,98253.95
2022-09-12T01:56:22.423Z,98252.94
2022-09-12T01:57:32.251Z,98256.05
2022-09-12T01:58:44.993Z,98255.35
2022-09-12T01:59:57.423Z,98255.84
2022-09-12T02:01:10.481Z,98255.95
2022-09-12T02:02:36.378Z,98259.08
2022-09-12T02:04:15.386Z,98258.38
2022-09-12T02:05:45.036Z,98261.61
2022-09-12T02:06:59.823Z,98256.96
2022-09-12T02:08:18.890Z,98256.65
2022-09-12T02:09:36.893Z,98254.77
2022-09-12T02:10:56.050Z,98255.20
2022-09-12T02:12:01.342Z,98255.95
2022-09-12T02:13:11.772Z,98253.64
2022-09-12T02:14:24.301Z,98256.17
2022-09-12T02:15:43.392Z,98258.64
2022-09-12T02:16:51.240Z,98255.14
2022-09-12T02:17:58.291Z,98254.60
2022-09-12T02:19:17.618Z,98252.89
2022-09-12T02:20:47.903Z,98254.06
2022-09-12T02:21:55.205Z,98251.05
2022-09-12T02:22:58.205Z,98254.77
2022-09-12T02:24:04.894Z,98257.41
2022-09-12T02:25:11.566Z,98254.70
2022-09-12T02:26:23.396Z,98255.15
2022-09-12T02:28:06.698Z,98259.45
2022-09-12T02:29:08.371Z,98258.54
2022-09-12T02:30:10.850Z,98258.39
2022-09-12T02:31:15.424Z,98259.84
2022-09-12T02:32:36.416Z,98263.83
2022-09-12T02:34:00.123Z,98262.15
2022-09-12T02:35:11.730Z,98261.98
2022-09-12T02:36:22.225Z,98257.90
2022-09-12T02:37:30.498Z,98256.83
2022-09-12T02:38:45.252Z,98257.25
2022-09-12T02:39:47.362Z,98257.36
2022-09-12T02:40:49.161Z,98256.50
2022-09-12T02:41:54.572Z,98256.34
2022-09-12T02:42:57.131Z,98256.44
2022-09-12T02:43:58.942Z,98257.27
2022-09-12T02:45:01.168Z,98258.02
2022-09-12T02:46:02.981Z,98257.58
2022-09-12T02:47:31.295Z,98257.52
2022-09-12T02:48:41.384Z,98258.92
2022-09-12T02:49:43.247Z,98257.30
2022-09-12T02:50:45.186Z,98259.39
2022-09-12T02:51:48.597Z,98258.42
2022-09-12T02:52:54.679Z,98260.27
2022-09-12T02:53:57.637Z,98259.56
2022-09-12T02:54:59.704Z,98252.50
2022-09-12T02:56:01.732Z,98255.91
2022-09-12T02:57:04.016Z,98258.65
2022-09-12T02:58:12.918Z,98259.19
2022-09-12T02:59:20.324Z,98258.39
2022-09-12T03:00:24.102Z,98260.00
2022-09-12T03:01:44.102Z,98258.98
2022-09-12T03:03:08.726Z,98260.98
2022-09-12T03:04:19.023Z,98263.71
2022-09-12T03:05:50.685Z,98259.52
2022-09-12T03:07:27.047Z,98267.02
2022-09-12T03:09:16.329Z,98267.55
2022-09-12T03:10:32.733Z,98267.48
2022-09-12T03:11:43.174Z,98266.69
2022-09-12T03:13:04.030Z,98268.25
2022-09-12T03:14:23.895Z,98268.46
2022-09-12T03:15:54.779Z,98271.27
2022-09-12T03:17:05.441Z,98267.01
2022-09-12T03:18:28.756Z,98269.65
2022-09-12T03:20:03.132Z,98273.27
2022-09-12T03:21:19.167Z,98273.86
2022-09-12T03:22:53.437Z,98272.23
2022-09-12T03:24:23.469Z,98272.94
2022-09-12T03:25:41.629Z,98273.86
2022-09-12T03:27:03.502Z,98274.83
2022-09-12T03:28:15.577Z,98273.90
2022-09-12T03:29:20.137Z,98277.08
2022-09-12T03:30:21.832Z,98275.20
2022-09-12T03:31:23.490Z,98276.61
2022-09-12T03:32:46.236Z,98276.70
2022-09-12T03:33:47.957Z,98281.55
2022-09-12T03:34:49.637Z,98278.96
2022-09-12T03:35:53.163Z,98284.20
2022-09-12T03:36:55.605Z,98282.09
2022-09-12T03:37:57.262Z,98284.36
2022-09-12T03:38:58.861Z,98284.73
2022-09-12T03:40:01.100Z,98288.61
2022-09-12T03:41:02.729Z,98287.62
2022-09-12T03:42:04.535Z,98286.58
2022-09-12T03:43:08.101Z,98287.77
2022-09-12T03:44:09.714Z,98290.19
2022-09-12T03:45:11.782Z,98288.20
2022-09-12T03:46:14.046Z,98292.55
2022-09-12T03:47:15.689Z,98293.90
2022-09-12T03:48:17.354Z,98293.69
2022-09-12T03:49:18.966Z,98295.08
2022-09-12T03:50:20.831Z,98299.39
2022-09-12T03:51:22.573Z,98295.52
2022-09-12T03:52:24.435Z,98296.92
2022-09-12T03:53:26.048Z,98298.10
2022-09-12T03:54:27.862Z,98298.80
2022-09-12T03:55:29.690Z,98301.98
2022-09-12T03:56:31.601Z,98298.05
2022-09-12T03:57:33.435Z,98299.02
2022-09-12T03:58:36.299Z,98296.70
2022-09-12T03:59:38.342Z,98303.65
2022-09-12T04:00:41.005Z,98303.81
2022-09-12T04:01:42.599Z,98300.64
2022-09-12T04:02:44.209Z,98304.88
2022-09-12T04:03:49.223Z,98303.27
2022-09-12T04:04:50.870Z,98304.36
2022-09-12T04:05:52.702Z,98302.16
2022-09-12T04:06:54.589Z,98305.98
2022-09-12T04:07:56.228Z,98306.95
2022-09-12T04:08:58.575Z,98300.96
2022-09-12T04:10:00.248Z,98308.02
2022-09-12T04:11:10.784Z,98306.29
2022-09-12T04:12:13.978Z,98309.26
2022-09-12T04:13:15.634Z,98306.45
2022-09-12T04:14:17.663Z,98306.83
2022-09-12T04:15:19.729Z,98306.83
2022-09-12T04:16:21.520Z,98307.90
2022-09-12T04:17:23.239Z,98307.91
2022-09-12T04:18:25.463Z,98308.17
2022-09-12T04:19:27.545Z,98310.88
2022-09-12T04:20:29.235Z,98308.77
2022-09-12T04:21:31.027Z,98308.02
2022-09-12T04:22:33.347Z,98312.58
2022-09-12T04:23:36.426Z,98312.27
2022-09-12T04:24:38.032Z,98312.44
2022-09-12T04:25:39.653Z,98311.46
2022-09-12T04:26:41.895Z,98310.77
2022-09-12T04:27:43.493Z,98313.14
2022-09-12T04:28:46.476Z,98313.23
2022-09-12T04:29:48.189Z,98315.66
2022-09-12T04:30:50.442Z,98316.91
2022-09-12T04:31:52.160Z,98317.23
2022-09-12T04:32:53.790Z,98314.58
2022-09-12T04:33:57.814Z,98316.70
2022-09-12T04:34:59.870Z,98318.16
2022-09-12T04:36:16.920Z,98316.86
2022-09-12T04:37:19.012Z,98319.88
2022-09-12T04:38:20.672Z,98319.23
2022-09-12T04:39:22.279Z,98320.97
2022-09-12T04:40:23.892Z,98324.80
2022-09-12T04:41:32.076Z,98324.64
2022-09-12T04:42:33.751Z,98323.30
2022-09-12T04:43:35.350Z,98325.08
2022-09-12T04:44:37.510Z,98319.70
2022-09-12T04:45:39.165Z,98324.16
2022-09-12T04:46:44.893Z,98323.68
2022-09-12T04:47:46.818Z,98324.86
2022-09-12T04:48:52.307Z,98326.98
2022-09-12T04:49:59.952Z,98324.39
2022-09-12T04:51:12.117Z,98328.91
2022-09-12T04:52:13.836Z,98333.02
2022-09-12T04:53:18.603Z,98337.92
2022-09-12T04:54:20.593Z,98334.73
2022-09-12T04:55:22.741Z,98338.45
2022-09-12T04:56:26.457Z,98336.56
2022-09-12T04:57:28.123Z,98337.75
2022-09-12T04:58:32.266Z,98339.64
2022-09-12T04:59:34.361Z,98344.65
2022-09-12T05:00:35.962Z,98340.17
2022-09-12T05:01:37.781Z,98338.67
2022-09-12T05:02:40.975Z,98339.85
2022-09-12T05:03:44.140Z,98340.44
2022-09-12T05:04:46.881Z,98340.66
2022-09-12T05:05:48.532Z,98338.55
2022-09-12T05:06:50.267Z,98339.95
2022-09-12T05:07:51.889Z,98339.31
2022-09-12T05:08:54.212Z,98336.67
2022-09-12T05:09:55.831Z,98338.45
2022-09-12T05:11:03.688Z,98339.27
2022-09-12T05:12:06.019Z,98341.14
2022-09-12T05:13:09.397Z,98341.04
2022-09-12T05:14:12.310Z,98342.50
2022-09-12T05:15:14.028Z,98341.08
2022-09-12T05:16:20.218Z,98346.27
2022-09-12T05:17:21.981Z,98345.89
2022-09-12T05:18:23.610Z,98349.23
2022-09-12T05:19:25.303Z,98346.38
2022-09-12T05:20:26.969Z,98345.13
2022-09-12T05:21:28.683Z,98350.23
2022-09-12T05:22:30.290Z,98350.90
2022-09-12T05:23:32.449Z,98352.19
2022-09-12T05:24:35.276Z,98351.80
2022-09-12T05:25:37.008Z,98348.64
2022-09-12T05:26:38.789Z,98349.70
2022-09-12T05:27:40.488Z,98349.48
2022-09-12T05:28:43.652Z,98348.13
2022-09-12T05:29:45.354Z,98351.46
2022-09-12T05:30:47.486Z,98350.38
2022-09-12T05:31:52.056Z,98346.92
2022-09-12T05:32:53.781Z,98353.41
2022-09-12T05:33:56.641Z,98352.17
2022-09-12T05:35:00.263Z,98350.55
2022-09-12T05:36:04.188Z,98353.93
2022-09-12T05:37:05.783Z,98353.98
2022-09-12T05:38:08.377Z,98348.38
2022-09-12T05:39:10.046Z,98352.47
2022-09-12T05:40:13.546Z,98350.73
2022-09-12T05:41:24.666Z,98352.77
2022-09-12T05:42:29.941Z,98350.77
2022-09-12T05:43:34.888Z,98351.03
2022-09-12T05:44:36.964Z,98354.52
2022-09-12T05:45:39.354Z,98352.25
2022-09-12T05:46:43.674Z,98350.73
2022-09-12T05:47:47.151Z,98351.04
2022-09-12T05:48:55.071Z,98353.67
2022-09-12T05:49:59.068Z,98354.35
2022-09-12T05:51:08.809Z,98354.91
2022-09-12T05:52:10.493Z,98351.27
2022-09-12T05:53:12.114Z,98359.02
2022-09-12T05:54:19.358Z,98353.36
2022-09-12T05:55:21.510Z,98354.66
2022-09-12T05:56:25.977Z,98355.45
2022-09-12T05:57:27.661Z,98352.14
2022-09-12T05:58:29.298Z,98352.77
2022-09-12T05:59:31.055Z,98354.10
2022-09-12T06:00:33.672Z,98352.60
2022-09-12T06:01:35.873Z,98354.72
2022-09-12T06:02:37.754Z,98354.77
2022-09-12T06:03:48.314Z,98353.70
2022-09-12T06:04:49.928Z,98350.77
2022-09-12T06:05:51.695Z,98350.22
2022-09-12T06:06:53.581Z,98351.39
2022-09-12T06:07:56.497Z,98354.13
2022-09-12T06:09:04.124Z,98351.02
2022-09-12T06:10:06.190Z,98350.19
2022-09-12T06:11:09.973Z,98349.02
2022-09-12T06:12:11.607Z,98352.12
2022-09-12T06:13:13.898Z,98353.13
2022-09-12T06:14:17.543Z,98353.77
2022-09-12T06:15:19.192Z,98351.54
2022-09-12T06:16:30.002Z,98354.16
2022-09-12T06:17:31.650Z,98354.04
2022-09-12T06:18:33.293Z,98354.06
2022-09-12T06:19:35.020Z,98353.25
2022-09-12T06:20:36.945Z,98351.40
2022-09-12T06:21:39.943Z,98351.59
2022-09-12T06:22:41.691Z,98347.89
2022-09-12T06:23:46.133Z,98354.68
2022-09-12T06:24:47.789Z,98352.22
2022-09-12T06:25:50.106Z,98355.95
2022-09-12T06:26:54.721Z,98358.38
2022-09-12T06:27:56.972Z,98357.70
2022-09-12T06:29:01.002Z,98356.05
2022-09-12T06:30:02.702Z,98353.92
2022-09-12T06:31:11.208Z,98354.68
2022-09-12T06:32:12.889Z,98358.67
2022-09-12T06:33:15.523Z,98360.16
2022-09-12T06:34:17.231Z,98360.60
2022-09-12T06:35:19.246Z,98363.62
2022-09-12T06:36:26.233Z,98361.91
2022-09-12T06:37:28.420Z,98366.33
2022-09-12T06:38:30.292Z,98363.98
2022-09-12T06:39:32.557Z,98366.52
2022-09-12T06:40:34.178Z,98364.48
2022-09-12T06:41:37.618Z,98368.06
2022-09-12T06:42:40.979Z,98370.54
2022-09-12T06:43:43.142Z,98371.31
2022-09-12T06:44:44.819Z,98375.21
2022-09-12T06:45:50.343Z,98376.31
2022-09-12T06:46:53.645Z,98370.52
2022-09-12T06:47:55.561Z,98372.95
2022-09-12T06:48:59.474Z,98375.02
2022-09-12T06:50:01.281Z,98371.70
2022-09-12T06:51:09.912Z,98375.23
2022-09-12T06:52:11.501Z,98379.40
2022-09-12T06:53:13.168Z,98378.41
2022-09-12T06:54:16.991Z,98378.98
2022-09-12T06:55:20.985Z,98375.13
2022-09-12T06:56:27.070Z,98373.42
2022-09-12T06:57:31.358Z,98379.48
2022-09-12T06:58:34.340Z,98380.87
2022-09-12T06:59:35.953Z,98379.02
2022-09-12T07:00:37.690Z,98380.21
2022-09-12T07:01:41.745Z,98380.88
2022-09-12T07:02:43.739Z,98379.91
2022-09-12T07:03:51.320Z,98378.75
2022-09-12T07:04:53.177Z,98376.39
2022-09-12T07:05:54.893Z,98377.41
2022-09-12T07:06:56.498Z,98379.77
2022-09-12T07:07:58.139Z,98380.30
2022-09-12T07:09:02.823Z,98379.61
2022-09-12T07:10:06.555Z,98384.05
2022-09-12T07:11:20.235Z,98381.54
2022-09-12T07:12:21.831Z,98380.67
2022-09-12T07:13:23.460Z,98380.64
2022-09-12T07:14:26.073Z,98384.94
2022-09-12T07:15:27.770Z,98381.86
2022-09-12T07:16:30.388Z,98381.34
2022-09-12T07:17:32.234Z,98385.90
2022-09-12T07:18:35.174Z,98387.52
2022-09-12T07:19:36.795Z,98385.36
2022-09-12T07:20:39.351Z,98388.02
2022-09-12T07:21:41.164Z,98382.86
2022-09-12T07:22:42.852Z,98380.56
2022-09-12T07:23:45.354Z,98384.03
2022-09-12T07:24:47.606Z,98383.02
2022-09-12T07:25:53.958Z,98387.14
2022-09-12T07:26:56.093Z,98386.46
2022-09-12T07:27:58.336Z,98382.41
2022-09-12T07:29:25.230Z,98387.59
2022-09-12T07:30:23.019Z,98385.56
2022-09-12T07:31:28.061Z,98387.06
2022-09-12T07:32:29.685Z,98389.48
2022-09-12T07:33:31.579Z,98386.20
2022-09-12T07:34:34.112Z,98388.50
2022-09-12T07:35:35.928Z,98392.59
2022-09-12T07:36:37.924Z,98393.99
2022-09-12T07:37:39.534Z,98391.84
2022-09-12T07:38:42.303Z,98397.23
2022-09-12T07:39:43.969Z,98395.14
2022-09-12T07:40:45.603Z,98397.64
2022-09-12T07:41:47.417Z,98405.77
2022-09-12T07:42:49.625Z,98404.55
2022-09-12T07:43:59.000Z,98403.08
2022-09-12T07:45:01.960Z,98408.94
2022-09-12T07:46:04.124Z,98408.76
2022-09-12T07:47:05.986Z,98411.36
2022-09-12T07:48:08.728Z,98412.64
2022-09-12T07:49:12.451Z,98411.11
2022-09-12T07:50:14.054Z,98417.56
2022-09-12T07:51:15.823Z,98417.07
2022-09-12T07:52:17.423Z,98415.00
2022-09-12T07:53:19.025Z,98411.89
2022-09-12T07:54:20.703Z,98415.97
2022-09-12T07:55:22.564Z,98417.27
2022-09-12T07:56:30.131Z,98416.80
2022-09-12T07:57:32.250Z,98413.80
2022-09-12T07:58:36.411Z,98418.95
2022-09-12T07:59:52.392Z,98413.30
2022-09-12T08:00:55.062Z,98412.06
2022-09-12T08:01:56.995Z,98415.04
2022-09-12T08:02:58.658Z,98412.75
2022-09-12T08:04:00.623Z,98411.03
2022-09-12T08:05:02.527Z,98411.30
2022-09-12T08:06:10.634Z,98414.92
2022-09-12T08:07:12.904Z,98413.98
2022-09-12T08:08:14.809Z,98408.84
2022-09-12T08:09:17.465Z,98412.80
2022-09-12T08:10:19.083Z,98412.89
2022-09-12T08:11:22.824Z,98413.30
2022-09-12T08:12:24.473Z,98416.30
2022-09-12T08:13:28.037Z,98416.30
2022-09-12T08:14:29.799Z,98413.28
2022-09-12T08:15:31.551Z,98415.13
2022-09-12T08:16:35.649Z,98422.01
2022-09-12T08:17:37.845Z,98417.34
2022-09-12T08:18:40.869Z,98416.89
2022-09-12T08:19:42.772Z,98418.49
2022-09-12T08:20:44.702Z,98421.50
2022-09-12T08:21:46.310Z,98419.04
2022-09-12T08:22:48.178Z,98419.63
2022-09-12T08:23:56.211Z,98425.37
2022-09-12T08:24:58.622Z,98416.58
2022-09-12T08:26:06.455Z,98419.44
2022-09-12T08:27:08.287Z,98419.72
2022-09-12T08:28:10.011Z,98418.20
2022-09-12T08:29:11.839Z,98416.16
2022-09-12T08:30:13.973Z,98415.65
2022-09-12T08:31:18.770Z,98417.71
2022-09-12T08:32:20.492Z,98417.88
2022-09-12T08:33:22.468Z,98415.98
2022-09-12T08:34:24.813Z,98420.98
2022-09-12T08:35:26.432Z,98417.61
2022-09-12T08:36:29.619Z,98422.19
2022-09-12T08:37:32.147Z,98421.13
2022-09-12T08:38:35.242Z,98421.20
2022-09-12T08:39:37.001Z,98420.23
2022-09-12T08:41:00.143Z,98418.06
2022-09-12T08:42:04.835Z,98418.08
2022-09-12T08:43:34.039Z,98420.83
2022-09-12T08:45:17.990Z,98422.96
2022-09-12T08:46:32.050Z,98424.36
2022-09-12T08:47:39.208Z,98427.59
2022-09-12T08:48:45.744Z,98429.19
2022-09-12T08:50:09.462Z,98430.57
2022-09-12T08:51:16.553Z,98429.58
2022-09-12T08:52:23.410Z,98430.38
2022-09-12T08:53:29.942Z,98427.05
2022-09-12T08:54:33.278Z,98433.54
2022-09-12T08:56:05.852Z,98433.87
2022-09-12T08:57:11.726Z,98437.46
2022-09-12T08:58:22.541Z,98437.25
2022-09-12T08:59:25.567Z,98434.91
2022-09-12T09:00:38.794Z,98436.00
2022-09-12T09:01:45.591Z,98436.94
2022-09-12T09:03:29.213Z,98439.04
2022-09-12T09:04:51.952Z,98433.10
2022-09-12T09:05:56.563Z,98430.98
2022-09-12T09:07:11.739Z,98431.48
2022-09-12T09:08:35.020Z,98430.23
2022-09-12T09:10:07.726Z,98427.61
2022-09-12T09:11:24.520Z,98422.80
2022-09-12T09:12:55.350Z,98424.48
2022-09-12T09:14:38.960Z,98422.75
2022-09-12T09:16:08.106Z,98429.89
2022-09-12T09:17:28.469Z,98430.88
2022-09-12T09:18:35.146Z,98429.76
2022-09-12T09:20:05.033Z,98426.27
2022-09-12T09:21:23.748Z,98427.36
2022-09-12T09:22:53.563Z,98424.88
2022-09-12T09:24:05.774Z,98420.88
2022-09-12T09:25:42.757Z,98417.71
2022-09-12T09:27:01.486Z,98429.89
2022-09-12T09:28:44.290Z,98434.86
2022-09-12T09:29:53.240Z,98432.11
2022-09-12T09:30:55.584Z,98426.48
2022-09-12T09:32:03.676Z,98424.88
2022-09-12T09:33:16.878Z,98426.45
2022-09-12T09:34:24.278Z,98426.09
2022-09-12T09:35:37.880Z,98423.91
2022-09-12T09:37:05.834Z,98429.67
2022-09-12T09:38:21.165Z,98429.06
2022-09-12T09:39:31.182Z,98430.13
2022-09-12T09:40:35.691Z,98429.00
2022-09-12T09:42:04.514Z,98428.91
2022-09-12T09:43:23.022Z,98419.48
2022-09-12T09:44:28.666Z,98427.69
2022-09-12T09:45:30.902Z,98429.04
2022-09-12T09:46:33.641Z,98423.69
2022-09-12T09:47:36.212Z,98424.77
2022-09-12T09:48:43.857Z,98426.35
2022-09-12T09:49:46.184Z,98435.78
2022-09-12T09:50:49.695Z,98435.54
2022-09-12T09:51:51.697Z,98440.63
2022-09-12T09:52:58.862Z,98438.64
2022-09-12T09:54:19.670Z,98439.09
2022-09-12T09:55:28.363Z,98436.89
2022-09-12T09:56:36.514Z,98434.13
2022-09-12T09:57:41.634Z,98429.93
2022-09-12T09:58:43.621Z,98434.36
2022-09-12T09:59:45.267Z,98431.35
2022-09-12T10:00:47.227Z,98432.89
2022-09-12T10:01:56.734Z,98432.38
2022-09-12T10:03:11.336Z,98436.38
2022-09-12T10:04:41.627Z,98435.92
2022-09-12T10:05:57.475Z,98442.00
2022-09-12T10:07:02.331Z,98438.23
2022-09-12T10:08:07.380Z,98437.25
2022-09-12T10:09:14.894Z,98437.70
2022-09-12T10:10:19.405Z,98437.31
2022-09-12T10:11:23.246Z,98439.13
2022-09-12T10:12:28.561Z,98439.46
2022-09-12T10:13:37.871Z,98439.37
2022-09-12T10:14:41.706Z,98442.52
2022-09-12T10:15:58.114Z,98440.83
2022-09-12T10:16:59.870Z,98444.44
2022-09-12T10:18:03.039Z,98442.88
2022-09-12T10:19:04.681Z,98448.71
2022-09-12T10:20:35.657Z,98450.17
2022-09-12T10:21:52.707Z,98448.44
2022-09-12T10:22:54.393Z,98443.88
2022-09-12T10:24:23.066Z,98445.85
2022-09-12T10:25:27.149Z,98447.02
2022-09-12T10:26:36.327Z,98447.33
2022-09-12T10:27:38.069Z,98440.65
2022-09-12T10:28:52.188Z,98443.52
2022-09-12T10:30:01.909Z,98441.48
2022-09-12T10:31:04.519Z,98440.70
2022-09-12T10:32:09.444Z,98444.33
2022-09-12T10:33:12.983Z,98447.81
2022-09-12T10:34:28.010Z,98446.98
2022-09-12T10:35:44.879Z,98451.70
2022-09-12T10:36:46.841Z,98448.32
2022-09-12T10:38:00.194Z,98447.92
2022-09-12T10:39:03.186Z,98449.94
2022-09-12T10:40:20.663Z,98447.02
2022-09-12T10:41:23.789Z,98446.98
2022-09-12T10:42:58.925Z,98448.50
2022-09-12T10:44:14.547Z,98444.14
2022-09-12T10:45:37.086Z,98447.54
2022-09-12T10:46:40.053Z,98443.77
2022-09-12T10:47:41.831Z,98444.27
2022-09-12T10:48:48.012Z,98451.47
2022-09-12T10:49:51.124Z,98450.55
2022-09-12T10:50:52.844Z,98455.66
2022-09-12T10:51:56.324Z,98453.69
2022-09-12T10:53:20.998Z,98455.92
2022-09-12T10:54:26.991Z,98450.20
2022-09-12T10:55:34.928Z,98455.52
2022-09-12T10:56:48.340Z,98455.83
2022-09-12T10:58:16.685Z,98451.42
2022-09-12T10:59:30.197Z,98450.56
2022-09-12T11:00:40.831Z,98451.58
2022-09-12T11:01:47.090Z,98457.40
2022-09-12T11:03:11.282Z,98456.66
2022-09-12T11:04:25.038Z,98457.02
2022-09-12T11:05:38.697Z,98459.13
2022-09-12T11:06:56.526Z,98455.02
2022-09-12T11:08:17.273Z,98452.99
2022-09-12T11:09:32.565Z,98455.48
2022-09-12T11:10:57.029Z,98455.89
2022-09-12T11:12:29.565Z,98456.48
2022-09-12T11:13:46.158Z,98455.56
2022-09-12T11:14:59.719Z,98457.27
2022-09-12T11:16:24.127Z,98460.08
2022-09-12T11:17:32.097Z,98460.48
2022-09-12T11:18:56.510Z,98462.19
2022-09-12T11:20:25.359Z,98462.56
2022-09-12T11:21:58.136Z,98459.73
2022-09-12T11:23:23.935Z,98456.84
2022-09-12T11:24:56.687Z,98453.16
2022-09-12T11:26:21.795Z,98452.95
2022-09-12T11:27:53.668Z,98457.73
2022-09-12T11:29:37.671Z,98464.10
2022-09-12T11:31:03.107Z,98463.96
2022-09-12T11:32:12.523Z,98464.86
2022-09-12T11:33:29.474Z,98459.68
2022-09-12T11:34:33.758Z,98457.48
2022-09-12T11:35:49.798Z,98463.42
2022-09-12T11:37:07.397Z,98461.41
2022-09-12T11:38:23.987Z,98456.28
2022-09-12T11:39:40.439Z,98459.48
2022-09-12T11:41:03.555Z,98458.27
2022-09-12T11:42:22.478Z,98457.65
2022-09-12T11:43:54.014Z,98458.44
2022-09-12T11:45:16.387Z,98455.15
2022-09-12T11:46:36.281Z,98458.16
2022-09-12T11:47:43.297Z,98459.38
2022-09-12T11:49:16.181Z,98456.40
2022-09-12T11:50:30.591Z,98456.56
2022-09-12T11:51:44.097Z,98455.88
2022-09-12T11:52:45.694Z,98457.05
2022-09-12T11:54:15.864Z,98460.95
2022-09-12T11:55:27.199Z,98458.08
2022-09-12T11:56:28.876Z,98455.19
2022-09-12T11:57:50.013Z,98459.20
2022-09-12T11:59:02.934Z,98452.92
2022-09-12T12:00:21.711Z,98453.93
2022-09-12T12:01:31.836Z,98454.23
2022-09-12T12:02:48.301Z,98458.39
2022-09-12T12:03:52.479Z,98461.91
2022-09-12T12:05:20.517Z,98462.62
2022-09-12T12:06:32.076Z,98461.72
2022-09-12T12:07:46.291Z,98461.98
2022-09-12T12:08:50.580Z,98455.85
2022-09-12T12:09:52.948Z,98460.17
2022-09-12T12:11:04.670Z,98457.70
2022-09-12T12:12:15.560Z,98458.02
2022-09-12T12:13:24.145Z,98456.30
2022-09-12T12:14:43.416Z,98459.59
2022-09-12T12:15:49.187Z,98457.83
2022-09-12T12:16:51.211Z,98457.79
2022-09-12T12:18:15.247Z,98454.54
2022-09-12T12:19:16.779Z,98451.45
2022-09-12T12:20:18.520Z,98450.31
2022-09-12T12:21:29.391Z,98445.48
2022-09-12T12:22:31.464Z,98452.04
2022-09-12T12:23:35.479Z,98454.86
2022-09-12T12:25:17.257Z,98457.08
2022-09-12T12:26:42.649Z,98451.67
2022-09-12T12:27:44.177Z,98457.85
2022-09-12T12:28:50.549Z,98458.98
2022-09-12T12:29:52.239Z,98456.19
2022-09-12T12:30:53.838Z,98455.75
2022-09-12T12:32:01.987Z,98458.02
2022-09-12T12:33:13.186Z,98457.36
2022-09-12T12:34:42.207Z,98460.14
2022-09-12T12:36:35.284Z,98462.98
2022-09-12T12:37:42.907Z,98466.72
2022-09-12T12:38:44.686Z,98468.31
2022-09-12T12:39:48.224Z,98469.90
2022-09-12T12:40:50.463Z,98467.11
2022-09-12T12:41:52.101Z,98468.39
2022-09-12T12:43:00.327Z,98469.98
2022-09-12T12:44:42.381Z,98466.50
2022-09-12T12:45:48.044Z,98461.48
2022-09-12T12:47:18.631Z,98462.35
2022-09-12T12:48:20.507Z,98460.15
2022-09-12T12:49:28.508Z,98457.55
2022-09-12T12:50:31.961Z,98461.45
2022-09-12T12:51:53.112Z,98461.02
2022-09-12T12:53:17.489Z,98461.52
2022-09-12T12:54:50.769Z,98464.23
2022-09-12T12:55:56.127Z,98457.00
2022-09-12T12:57:23.301Z,98458.19
2022-09-12T12:58:33.166Z,98451.90
2022-09-12T12:59:34.877Z,98454.63
2022-09-12T13:00:40.333Z,98457.58
2022-09-12T13:01:54.744Z,98454.05
2022-09-12T13:03:08.964Z,98454.58
2022-09-12T13:04:17.505Z,98449.40
2022-09-12T13:05:24.602Z,98456.38
2022-09-12T13:06:37.488Z,98455.42
2022-09-12T13:07:40.865Z,98449.30
2022-09-12T13:09:00.087Z,98451.61
2022-09-12T13:10:03.636Z,98453.77
2022-09-12T13:11:15.435Z,98455.42
2022-09-12T13:12:26.469Z,98458.15
2022-09-12T13:13:53.402Z,98459.66
2022-09-12T13:15:00.918Z,98461.99
2022-09-12T13:16:02.985Z,98460.06
2022-09-12T13:17:08.246Z,98456.38
2022-09-12T13:18:25.873Z,98455.78
2022-09-12T13:19:32.359Z,98455.85
2022-09-12T13:20:45.027Z,98455.14
2022-09-12T13:21:56.757Z,98453.08
2022-09-12T13:22:58.794Z,98454.82
2022-09-12T13:24:13.813Z,98454.10
2022-09-12T13:25:19.858Z,98454.39
2022-09-12T13:26:28.625Z,98451.61
2022-09-12T13:27:30.281Z,98445.56